Time;durP1;ratioP1;P1;durP2;ratioP2;P2;SDS_P1;SDS_P2;PMS_P1;PMS_P2;Temp;Humidity;BMP_temperature;BMP_pressure;BME280_temperature;BME280_humidity;BME280_pressure;Samples;Min_cycle;Max_cycle;Signal;HPM_P1;HPM_P2
2023/12/26 00:02:16;;;;;;;4.55;1.70;;;9.00;96.00;;;;;;5072033;28;20039;-51
2023/12/26 00:04:43;;;;;;;6.05;1.75;;;9.00;96.10;;;;;;5072707;28;20060;-51
2023/12/26 00:07:11;;;;;;;5.28;1.60;;;8.90;96.10;;;;;;5072496;28;20514;-53
2023/12/26 00:09:41;;;;;;;7.65;2.20;;;8.90;96.10;;;;;;5072077;28;20477;-50
2023/12/26 00:12:08;;;;;;;5.28;1.85;;;8.90;96.20;;;;;;5072584;28;20043;-53
2023/12/26 00:14:37;;;;;;;4.13;1.83;;;8.90;96.20;;;;;;5083479;28;20048;-52
2023/12/26 00:17:06;;;;;;;7.75;1.80;;;8.90;96.20;;;;;;5072369;28;20042;-52
2023/12/26 00:19:33;;;;;;;6.05;1.80;;;9.00;96.20;;;;;;5072293;28;20048;-55
2023/12/26 00:22:00;;;;;;;7.20;1.92;;;9.00;96.20;;;;;;5072258;28;20039;-48
2023/12/26 00:24:26;;;;;;;2.78;0.98;;;9.00;96.20;;;;;;5072361;28;20031;-51
2023/12/26 00:26:52;;;;;;;6.07;1.58;;;9.00;96.30;;;;;;5072200;28;20139;-54
2023/12/26 00:29:19;;;;;;;7.07;1.48;;;9.00;96.30;;;;;;5074063;28;20086;-55
2023/12/26 00:31:46;;;;;;;5.47;1.40;;;9.00;96.30;;;;;;5072196;28;20071;-49
2023/12/26 00:34:13;;;;;;;3.55;1.60;;;9.00;96.30;;;;;;5072622;28;20024;-50
2023/12/26 00:36:40;;;;;;;3.53;1.17;;;9.00;96.40;;;;;;5071996;28;20326;-50
2023/12/26 00:39:07;;;;;;;3.75;1.40;;;9.00;96.30;;;;;;5078282;28;20025;-55
2023/12/26 00:41:34;;;;;;;4.25;1.50;;;9.00;96.40;;;;;;5072122;28;20040;-54
2023/12/26 00:44:02;;;;;;;3.97;1.38;;;9.00;96.40;;;;;;5087217;28;20040;-53
2023/12/26 00:46:29;;;;;;;4.68;2.20;;;9.00;96.40;;;;;;5074878;28;20029;-48
2023/12/26 00:48:56;;;;;;;5.50;1.83;;;9.10;96.40;;;;;;5071954;28;20089;-51
2023/12/26 00:51:23;;;;;;;4.45;1.48;;;9.10;96.40;;;;;;5077241;28;20040;-54
2023/12/26 00:53:48;;;;;;;4.47;2.05;;;9.00;96.40;;;;;;5076811;28;20473;-50
2023/12/26 00:56:15;;;;;;;5.18;2.25;;;9.10;96.50;;;;;;5075021;28;20043;-51
2023/12/26 00:58:45;;;;;;;5.40;2.00;;;9.10;96.40;;;;;;5089822;28;20580;-55
2023/12/26 01:01:12;;;;;;;5.47;2.25;;;9.10;96.50;;;;;;5080943;28;20029;-54
2023/12/26 01:03:39;;;;;;;4.55;2.10;;;9.10;96.50;;;;;;5074804;28;20063;-57
2023/12/26 01:06:06;;;;;;;3.88;1.70;;;9.10;96.50;;;;;;5074823;28;20086;-57
2023/12/26 01:08:31;;;;;;;4.90;2.17;;;9.10;96.50;;;;;;5075857;28;20025;-55
2023/12/26 01:10:58;;;;;;;5.93;2.15;;;9.10;96.50;;;;;;5073857;28;20085;-53
2023/12/26 01:13:26;;;;;;;4.00;1.85;;;9.10;96.60;;;;;;5074825;28;20024;-52
2023/12/26 01:15:53;;;;;;;6.78;2.50;;;9.10;96.60;;;;;;5078036;28;20032;-48
2023/12/26 01:18:22;;;;;;;4.35;1.98;;;9.10;96.60;;;;;;5075067;28;20469;-48
2023/12/26 01:20:49;;;;;;;5.47;1.98;;;9.10;96.60;;;;;;5074781;28;20020;-48
2023/12/26 01:23:16;;;;;;;3.08;1.95;;;9.10;96.70;;;;;;5074326;28;20102;-50
2023/12/26 01:25:43;;;;;;;8.43;2.50;;;9.10;96.70;;;;;;5076932;28;20458;-48
2023/12/26 01:28:10;;;;;;;3.83;1.80;;;9.20;96.70;;;;;;5082493;28;20024;-53
2023/12/26 01:30:40;;;;;;;5.32;1.85;;;9.10;96.70;;;;;;5080079;28;20056;-48
2023/12/26 01:33:08;;;;;;;4.85;1.67;;;9.20;96.70;;;;;;5084234;28;20101;-50
2023/12/26 01:35:40;;;;;;;4.32;1.75;;;9.10;96.70;;;;;;5076637;28;20338;-47
2023/12/26 01:38:07;;;;;;;4.93;2.10;;;9.20;96.70;;;;;;5083831;28;20504;-49
2023/12/26 01:40:34;;;;;;;6.95;1.83;;;9.20;96.70;;;;;;5073992;28;20027;-47
2023/12/26 01:43:01;;;;;;;4.25;1.80;;;9.20;96.70;;;;;;5075958;28;20029;-48
2023/12/26 01:45:28;;;;;;;5.00;2.22;;;9.20;96.70;;;;;;5073811;28;20025;-46
2023/12/26 01:48:02;;;;;;;5.97;2.22;;;9.20;96.70;;;;;;5056510;28;20020;-50
2023/12/26 01:50:29;;;;;;;4.05;1.92;;;9.20;96.70;;;;;;5074871;28;20032;-48
2023/12/26 01:52:59;;;;;;;6.82;2.00;;;9.20;96.60;;;;;;5056824;28;20509;-47
2023/12/26 01:55:28;;;;;;;7.25;2.72;;;9.30;96.60;;;;;;5075337;28;20408;-46
2023/12/26 01:57:59;;;;;;;4.63;2.22;;;9.30;96.50;;;;;;5074466;28;20016;-46
2023/12/26 02:00:26;;;;;;;8.13;2.03;;;9.30;96.50;;;;;;5084027;28;20021;-48
2023/12/26 02:02:55;;;;;;;9.20;2.45;;;9.30;96.50;;;;;;5073614;28;20029;-53
2023/12/26 02:05:24;;;;;;;7.60;2.00;;;9.30;96.40;;;;;;5074168;28;20017;-50
2023/12/26 02:07:50;;;;;;;5.45;1.98;;;9.30;96.30;;;;;;5074409;28;20386;-49
2023/12/26 02:10:19;;;;;;;4.20;1.67;;;9.30;96.20;;;;;;5065675;28;20059;-48
2023/12/26 02:12:48;;;;;;;6.13;1.92;;;9.30;96.20;;;;;;5075289;28;20054;-49
2023/12/26 02:15:15;;;;;;;10.70;1.85;;;9.30;96.20;;;;;;5073561;28;20036;-49
2023/12/26 02:17:43;;;;;;;7.47;1.98;;;9.30;96.10;;;;;;5074404;28;20051;-46
2023/12/26 02:20:10;;;;;;;11.55;2.53;;;9.30;96.10;;;;;;5072970;28;20310;-46
2023/12/26 02:22:38;;;;;;;5.93;1.88;;;9.30;96.10;;;;;;5092342;28;20062;-46
2023/12/26 02:25:08;;;;;;;7.93;1.75;;;9.30;96.00;;;;;;5073795;28;20345;-48
2023/12/26 02:27:37;;;;;;;6.95;2.10;;;9.30;95.90;;;;;;5078379;28;20078;-46
2023/12/26 02:30:05;;;;;;;10.05;2.58;;;9.40;95.80;;;;;;5073692;28;20063;-50
2023/12/26 02:32:34;;;;;;;9.63;2.35;;;9.40;95.70;;;;;;5080183;28;20028;-46
2023/12/26 02:35:02;;;;;;;8.60;2.13;;;9.30;95.70;;;;;;5083636;28;20366;-52
2023/12/26 02:37:29;;;;;;;8.02;2.28;;;9.30;95.60;;;;;;5073432;28;20025;-48
2023/12/26 02:39:55;;;;;;;6.65;2.17;;;9.30;95.60;;;;;;5073093;28;20055;-46
2023/12/26 02:42:32;;;;;;;11.10;1.88;;;9.30;95.40;;;;;;5082897;28;20109;-47
2023/12/26 02:45:01;;;;;;;8.32;2.00;;;9.20;95.30;;;;;;5073601;28;20056;-50
2023/12/26 02:47:28;;;;;;;7.30;1.85;;;9.20;95.30;;;;;;5079136;28;20028;-47
2023/12/26 02:49:55;;;;;;;8.88;1.70;;;9.20;95.20;;;;;;5084477;28;20028;-48
2023/12/26 02:52:24;;;;;;;7.47;2.00;;;9.20;95.10;;;;;;5073091;28;20111;-52
2023/12/26 02:54:51;;;;;;;11.25;2.90;;;9.10;95.00;;;;;;5056668;28;20036;-52
2023/12/26 02:57:18;;;;;;;9.82;1.80;;;9.10;95.00;;;;;;5072832;28;20033;-50
2023/12/26 02:59:45;;;;;;;7.57;2.13;;;9.00;94.80;;;;;;5072420;28;20051;-46
2023/12/26 03:02:12;;;;;;;15.48;3.15;;;9.00;94.50;;;;;;5072644;28;20111;-49
2023/12/26 03:04:39;;;;;;;14.65;2.45;;;9.00;94.10;;;;;;5073195;28;20035;-51
2023/12/26 03:07:09;;;;;;;17.30;3.15;;;8.90;93.60;;;;;;5073371;28;20043;-49
2023/12/26 03:09:36;;;;;;;12.50;2.25;;;8.90;92.90;;;;;;5071805;28;20060;-52
2023/12/26 03:12:05;;;;;;;13.23;2.03;;;8.80;92.60;;;;;;5073908;28;20107;-51
2023/12/26 03:14:36;;;;;;;11.25;3.15;;;8.70;92.20;;;;;;5071789;28;20051;-51
2023/12/26 03:17:03;;;;;;;9.35;2.35;;;8.60;91.20;;;;;;5087787;28;20052;-51
2023/12/26 03:19:30;;;;;;;11.68;2.13;;;8.60;90.80;;;;;;5076702;28;20499;-47
2023/12/26 03:21:57;;;;;;;13.55;3.05;;;8.50;90.70;;;;;;5082463;28;20048;-49
2023/12/26 03:24:24;;;;;;;15.88;2.83;;;8.50;90.80;;;;;;5082096;28;20033;-46
2023/12/26 03:26:52;;;;;;;18.05;2.95;;;8.50;90.60;;;;;;5085323;28;20111;-47
2023/12/26 03:29:21;;;;;;;19.95;4.28;;;8.50;90.70;;;;;;5072927;28;20029;-49
2023/12/26 03:31:49;;;;;;;13.45;2.88;;;8.40;91.10;;;;;;5074100;28;20389;-47
2023/12/26 03:34:16;;;;;;;11.68;2.72;;;8.40;91.60;;;;;;5072553;28;20082;-45
2023/12/26 03:36:44;;;;;;;12.75;2.55;;;8.40;91.90;;;;;;5072659;28;20028;-49
2023/12/26 03:39:11;;;;;;;9.98;2.55;;;8.40;91.90;;;;;;5072774;28;20446;-51
2023/12/26 03:41:38;;;;;;;15.45;3.30;;;8.40;91.90;;;;;;5079261;28;20062;-46
2023/12/26 03:44:07;;;;;;;19.45;4.13;;;8.30;92.00;;;;;;5072421;28;20107;-46
2023/12/26 03:46:33;;;;;;;16.27;3.63;;;8.30;92.10;;;;;;5072438;28;20094;-48
2023/12/26 03:49:03;;;;;;;17.45;2.83;;;8.30;92.00;;;;;;5072753;28;20336;-47
2023/12/26 03:51:30;;;;;;;;;;;8.40;91.90;;;;;;5073185;28;20025;-47
2023/12/26 03:53:57;;;;;;;15.43;2.97;;;8.40;91.80;;;;;;5072839;28;19919;-47
2023/12/26 03:56:32;;;;;;;15.63;3.35;;;8.40;91.90;;;;;;5073101;28;20039;-47
2023/12/26 03:59:00;;;;;;;9.52;2.55;;;8.50;92.30;;;;;;5072926;28;20025;-49
2023/12/26 04:01:27;;;;;;;14.18;4.38;;;8.50;92.40;;;;;;5072391;28;20029;-49
2023/12/26 04:03:54;;;;;;;21.63;4.05;;;8.60;92.60;;;;;;5072362;28;20031;-53
2023/12/26 04:06:20;;;;;;;17.13;3.60;;;8.60;92.70;;;;;;5071658;28;20448;-49
2023/12/26 04:08:49;;;;;;;13.60;3.00;;;8.60;92.80;;;;;;5074672;28;20032;-48
2023/12/26 04:11:19;;;;;;;19.55;4.30;;;8.60;92.90;;;;;;5059568;28;20409;-48
2023/12/26 04:13:47;;;;;;;17.05;3.83;;;8.60;93.00;;;;;;5072272;28;20476;-51
2023/12/26 04:16:16;;;;;;;14.93;3.33;;;8.60;92.90;;;;;;5072022;28;20123;-51
2023/12/26 04:18:43;;;;;;;17.20;4.38;;;8.60;92.80;;;;;;5072336;28;20024;-49
2023/12/26 04:21:09;;;;;;;21.80;3.38;;;8.60;92.70;;;;;;5072152;28;20458;-48
2023/12/26 04:23:38;;;;;;;16.75;3.65;;;8.50;92.50;;;;;;5071307;28;20345;-46
2023/12/26 04:26:06;;;;;;;11.38;4.03;;;8.50;92.30;;;;;;5074948;28;20040;-49
2023/12/26 04:28:33;;;;;;;17.30;4.00;;;8.50;92.30;;;;;;5058864;28;20705;-53
2023/12/26 04:31:03;;;;;;;18.98;3.45;;;8.40;92.30;;;;;;5075848;28;20032;-46
2023/12/26 04:33:30;;;;;;;29.52;7.70;;;8.40;92.40;;;;;;5076444;28;20025;-46
2023/12/26 04:35:57;;;;;;;29.45;6.10;;;8.40;92.30;;;;;;5082227;28;20047;-47
2023/12/26 04:38:24;;;;;;;18.60;3.88;;;8.40;92.00;;;;;;5074683;28;20029;-48
2023/12/26 04:40:54;;;;;;;18.92;4.07;;;8.40;91.90;;;;;;5074882;28;20157;-49
2023/12/26 04:43:25;;;;;;;29.42;5.75;;;8.40;91.80;;;;;;5083425;28;20024;-47
2023/12/26 04:45:51;;;;;;;15.60;4.22;;;8.40;91.80;;;;;;5080859;28;20039;-49
2023/12/26 04:48:19;;;;;;;19.85;3.67;;;8.30;91.80;;;;;;5082281;28;20730;-51
2023/12/26 04:50:49;;;;;;;20.70;4.20;;;8.30;92.00;;;;;;5076067;28;20028;-47
2023/12/26 04:53:16;;;;;;;20.48;4.05;;;8.20;91.90;;;;;;5075536;28;20117;-49
2023/12/26 04:55:43;;;;;;;25.85;5.10;;;8.20;91.80;;;;;;5075501;28;20017;-49
2023/12/26 04:58:12;;;;;;;18.90;4.68;;;8.20;91.80;;;;;;5075812;28;20028;-46
2023/12/26 05:00:40;;;;;;;22.75;5.50;;;8.20;91.70;;;;;;5076811;28;20070;-48
2023/12/26 05:03:06;;;;;;;18.02;4.70;;;8.20;91.40;;;;;;5075219;28;20050;-48
2023/12/26 05:05:33;;;;;;;15.10;3.92;;;8.20;91.20;;;;;;5074729;28;20378;-51
2023/12/26 05:08:00;;;;;;;17.55;3.90;;;8.20;90.90;;;;;;5074782;28;20020;-51
2023/12/26 05:10:27;;;;;;;29.45;4.93;;;8.20;90.80;;;;;;5075283;28;20039;-47
2023/12/26 05:12:53;;;;;;;18.73;4.32;;;8.10;90.60;;;;;;5083404;28;20102;-47
2023/12/26 05:15:21;;;;;;;18.17;3.72;;;8.10;90.50;;;;;;5077535;28;20063;-50
2023/12/26 05:17:51;;;;;;;26.40;4.15;;;8.10;90.40;;;;;;5078419;28;20056;-49
2023/12/26 05:20:17;;;;;;;;;;;8.00;90.40;;;;;;5075616;28;20464;-48
2023/12/26 05:22:45;;;;;;;17.50;3.90;;;8.00;90.40;;;;;;5075075;28;20300;-49
2023/12/26 05:25:11;;;;;;;15.63;5.68;;;8.10;90.50;;;;;;5074711;28;20100;-46
2023/12/26 05:27:38;;;;;;;19.77;3.55;;;8.10;90.50;;;;;;5077781;28;20036;-47
2023/12/26 05:30:05;;;;;;;17.60;4.55;;;8.20;90.60;;;;;;5075032;28;20033;-51
2023/12/26 05:32:32;;;;;;;21.27;4.85;;;8.20;90.60;;;;;;5074824;28;20029;-48
2023/12/26 05:34:59;;;;;;;17.48;3.22;;;8.20;90.70;;;;;;5084026;28;20480;-48
2023/12/26 05:37:26;;;;;;;17.23;4.75;;;8.20;90.70;;;;;;5073893;28;20028;-47
2023/12/26 05:39:52;;;;;;;19.48;3.95;;;8.20;90.90;;;;;;5074929;28;20029;-52
2023/12/26 05:42:23;;;;;;;20.25;4.68;;;8.20;91.10;;;;;;5073828;28;20031;-48
2023/12/26 05:44:54;;;;;;;19.90;5.05;;;8.30;91.30;;;;;;5074439;28;20020;-47
2023/12/26 05:47:21;;;;;;;16.95;4.38;;;8.20;91.40;;;;;;5074332;28;20107;-49
2023/12/26 05:49:48;;;;;;;17.58;3.67;;;8.30;91.30;;;;;;5068125;28;20037;-50
2023/12/26 05:52:15;;;;;;;18.42;3.92;;;8.30;91.30;;;;;;5074321;28;20107;-46
2023/12/26 05:54:44;;;;;;;20.77;5.30;;;8.30;91.10;;;;;;5074334;28;20028;-48
2023/12/26 05:57:10;;;;;;;25.23;4.72;;;8.30;91.00;;;;;;5074622;28;20039;-48
2023/12/26 05:59:37;;;;;;;18.98;4.28;;;8.30;90.80;;;;;;5077884;28;20028;-50
2023/12/26 06:02:04;;;;;;;24.45;4.85;;;8.30;90.80;;;;;;5074115;28;20330;-48
2023/12/26 06:04:33;;;;;;;16.88;3.50;;;8.30;90.50;;;;;;5074186;28;20563;-49
2023/12/26 06:07:00;;;;;;;27.73;7.80;;;8.30;90.00;;;;;;5082313;28;20128;-50
2023/12/26 06:09:28;;;;;;;19.35;4.55;;;8.30;89.30;;;;;;5073526;28;20538;-49
2023/12/26 06:11:55;;;;;;;19.15;4.53;;;8.40;88.90;;;;;;5074173;28;20024;-47
2023/12/26 06:14:24;;;;;;;16.80;4.68;;;8.40;89.00;;;;;;5058602;28;20039;-52
2023/12/26 06:16:50;;;;;;;20.48;4.57;;;8.40;89.20;;;;;;5075189;28;20050;-49
2023/12/26 06:19:16;;;;;;;21.50;4.90;;;8.40;89.80;;;;;;5074201;28;20021;-47
2023/12/26 06:21:43;;;;;;;19.10;6.13;;;8.40;90.20;;;;;;5073966;28;20031;-52
2023/12/26 06:24:13;;;;;;;24.60;4.90;;;8.30;90.50;;;;;;5078984;28;20438;-47
2023/12/26 06:26:38;;;;;;;14.40;3.92;;;8.20;90.70;;;;;;5073851;28;20033;-46
2023/12/26 06:29:09;;;;;;;23.00;4.22;;;8.20;90.80;;;;;;5075675;28;20349;-48
2023/12/26 06:31:36;;;;;;;12.60;3.45;;;8.20;90.80;;;;;;5074762;28;20034;-47
2023/12/26 06:34:03;;;;;;;20.50;4.13;;;8.20;90.80;;;;;;5075932;28;20099;-46
2023/12/26 06:36:33;;;;;;;23.23;4.10;;;8.20;90.70;;;;;;5085804;28;20520;-50
2023/12/26 06:39:03;;;;;;;23.73;5.95;;;8.20;90.70;;;;;;5078189;28;20021;-48
2023/12/26 06:41:30;;;;;;;20.75;4.40;;;8.20;90.60;;;;;;5073898;28;20024;-48
2023/12/26 06:43:59;;;;;;;19.30;4.28;;;8.20;90.40;;;;;;5083894;28;20020;-46
2023/12/26 06:46:25;;;;;;;18.48;4.05;;;8.20;90.20;;;;;;5075134;28;20055;-49
2023/12/26 06:48:51;;;;;;;25.05;4.80;;;8.20;90.20;;;;;;5073350;28;20036;-46
2023/12/26 06:51:20;;;;;;;25.48;5.05;;;8.20;90.20;;;;;;5073301;28;20059;-50
2023/12/26 06:53:47;;;;;;;24.30;4.47;;;8.30;90.10;;;;;;5073380;28;20028;-49
2023/12/26 06:56:16;;;;;;;23.17;5.95;;;8.30;90.20;;;;;;5073139;28;20038;-48
2023/12/26 06:58:42;;;;;;;20.85;5.97;;;8.20;90.20;;;;;;5085258;28;20059;-47
2023/12/26 07:01:10;;;;;;;27.10;5.07;;;8.20;90.40;;;;;;5073258;28;20032;-46
2023/12/26 07:03:37;;;;;;;23.23;5.72;;;8.20;90.50;;;;;;5073163;28;20027;-46
2023/12/26 07:06:04;;;;;;;22.60;4.70;;;8.20;90.50;;;;;;5072673;28;20028;-49
2023/12/26 07:08:31;;;;;;;19.35;4.35;;;8.20;90.50;;;;;;5072855;28;20029;-46
2023/12/26 07:10:58;;;;;;;23.10;5.35;;;8.20;90.50;;;;;;5078374;28;20464;-49
2023/12/26 07:13:25;;;;;;;25.52;5.20;;;8.30;90.40;;;;;;5094431;28;20128;-48
2023/12/26 07:15:55;;;;;;;18.88;3.88;;;8.20;90.20;;;;;;5094597;28;20044;-46
2023/12/26 07:18:23;;;;;;;19.73;4.10;;;8.20;90.30;;;;;;5079529;28;20052;-49
2023/12/26 07:20:49;;;;;;;20.23;5.25;;;8.20;90.30;;;;;;5088907;28;20381;-49
2023/12/26 07:23:16;;;;;;;19.83;5.22;;;8.20;90.30;;;;;;5073011;28;20086;-47
2023/12/26 07:25:43;;;;;;;24.27;6.13;;;8.20;90.20;;;;;;5073439;28;20035;-46
2023/12/26 07:28:16;;;;;;;18.10;5.32;;;8.20;90.10;;;;;;5088899;28;20053;-47
2023/12/26 07:30:44;;;;;;;23.25;6.72;;;8.20;90.10;;;;;;5087633;28;20024;-49
2023/12/26 07:33:11;;;;;;;19.02;4.55;;;8.20;89.90;;;;;;5076999;28;20114;-47
2023/12/26 07:35:39;;;;;;;29.02;5.30;;;8.20;89.70;;;;;;5077318;28;20052;-48
2023/12/26 07:38:05;;;;;;;16.98;5.22;;;8.30;89.70;;;;;;5085164;28;20035;-46
2023/12/26 07:40:36;;;;;;;27.63;6.95;;;8.30;89.60;;;;;;5085114;28;20073;-48
2023/12/26 07:43:05;;;;;;;23.85;5.13;;;8.20;89.80;;;;;;5086803;28;20028;-47
2023/12/26 07:45:32;;;;;;;24.50;6.28;;;8.30;90.00;;;;;;5083325;28;20017;-46
2023/12/26 07:47:58;;;;;;;28.23;6.13;;;8.30;90.00;;;;;;5080694;28;20106;-47
2023/12/26 07:50:25;;;;;;;18.13;5.72;;;8.30;90.10;;;;;;5080185;28;20059;-49
2023/12/26 07:52:54;;;;;;;22.35;6.40;;;8.30;89.80;;;;;;5078841;28;20323;-51
2023/12/26 07:55:20;;;;;;;28.25;5.65;;;8.30;89.70;;;;;;5097723;28;20031;-49
2023/12/26 07:57:47;;;;;;;19.88;5.78;;;8.30;89.70;;;;;;5086891;28;20072;-47
2023/12/26 08:00:15;;;;;;;19.75;5.25;;;8.30;89.80;;;;;;5084046;28;20393;-46
2023/12/26 08:02:46;;;;;;;26.60;5.93;;;8.30;89.90;;;;;;5079384;28;20099;-48
2023/12/26 08:05:14;;;;;;;24.75;6.13;;;8.30;89.80;;;;;;5091310;28;20012;-46
2023/12/26 08:07:43;;;;;;;31.77;5.50;;;8.30;89.80;;;;;;5093193;27;20024;-47
2023/12/26 08:10:09;;;;;;;;;;;8.40;90.00;;;;;;5075804;28;20059;-46
2023/12/26 08:12:36;;;;;;;20.88;5.25;;;8.30;90.10;;;;;;5076087;28;19908;-47
2023/12/26 08:15:03;;;;;;;23.85;4.53;;;8.30;90.20;;;;;;5075900;28;20076;-50
2023/12/26 08:17:30;;;;;;;22.30;5.20;;;8.30;90.20;;;;;;5076031;28;20036;-47
2023/12/26 08:19:57;;;;;;;32.20;5.28;;;8.30;90.30;;;;;;5079067;28;20296;-50
2023/12/26 08:22:26;;;;;;;22.33;5.13;;;8.30;90.40;;;;;;5075554;28;20020;-47
2023/12/26 08:24:52;;;;;;;22.90;4.07;;;8.30;90.60;;;;;;5065948;28;20034;-49
2023/12/26 08:27:25;;;;;;;19.25;5.47;;;8.30;90.60;;;;;;5078273;28;20087;-47
2023/12/26 08:29:50;;;;;;;20.15;5.65;;;8.30;90.80;;;;;;5075120;28;20473;-51
2023/12/26 08:32:16;;;;;;;21.48;5.03;;;8.30;90.70;;;;;;5076246;28;20091;-47
2023/12/26 08:34:45;;;;;;;22.33;8.43;;;8.40;90.70;;;;;;5075725;28;20017;-49
2023/12/26 08:37:15;;;;;;;24.55;5.07;;;8.40;90.60;;;;;;5076017;28;20054;-48
2023/12/26 08:39:42;;;;;;;16.70;4.75;;;8.40;90.50;;;;;;5076934;28;20078;-47
2023/12/26 08:42:10;;;;;;;19.55;4.88;;;8.40;90.50;;;;;;5084213;28;20035;-48
2023/12/26 08:44:37;;;;;;;20.65;5.50;;;8.40;90.60;;;;;;5074463;28;20065;-47
2023/12/26 08:47:04;;;;;;;25.23;4.95;;;8.40;90.70;;;;;;5078193;28;20404;-47
2023/12/26 08:49:31;;;;;;;18.13;4.70;;;8.40;90.90;;;;;;5075578;28;20170;-46
2023/12/26 08:52:00;;;;;;;23.63;4.57;;;8.40;90.90;;;;;;5076154;28;20063;-45
2023/12/26 08:54:27;;;;;;;25.38;4.50;;;8.40;91.10;;;;;;5084862;28;20031;-46
2023/12/26 08:56:52;;;;;;;25.75;5.45;;;8.30;91.30;;;;;;5081044;28;20039;-45
2023/12/26 08:59:21;;;;;;;23.05;5.70;;;8.30;91.50;;;;;;5081718;28;20025;-44
2023/12/26 09:01:48;;;;;;;27.58;5.30;;;8.20;91.70;;;;;;5080048;28;20089;-46
2023/12/26 09:04:15;;;;;;;26.85;4.57;;;8.20;91.80;;;;;;5074546;28;20039;-44
2023/12/26 09:06:44;;;;;;;21.27;4.78;;;8.20;92.00;;;;;;5084360;28;20036;-49
2023/12/26 09:09:13;;;;;;;17.27;4.77;;;8.20;91.90;;;;;;5078410;28;20653;-50
2023/12/26 09:11:39;;;;;;;26.42;5.43;;;8.20;92.00;;;;;;5079973;28;20266;-47
2023/12/26 09:14:05;;;;;;;17.73;4.47;;;8.20;92.10;;;;;;5079539;28;20037;-51
2023/12/26 09:16:31;;;;;;;27.42;4.68;;;8.20;92.30;;;;;;5078742;28;20024;-53
2023/12/26 09:19:01;;;;;;;28.83;6.18;;;8.20;92.20;;;;;;5083248;28;20059;-46
2023/12/26 09:21:31;;;;;;;22.70;5.53;;;8.20;92.30;;;;;;5070097;28;20020;-49
2023/12/26 09:23:58;;;;;;;25.98;5.07;;;8.30;92.20;;;;;;5057604;28;20021;-50
2023/12/26 09:26:27;;;;;;;19.15;4.78;;;8.20;92.10;;;;;;5082966;28;20020;-53
2023/12/26 09:28:52;;;;;;;19.63;3.97;;;8.30;92.00;;;;;;5076943;28;20090;-55
2023/12/26 09:31:19;;;;;;;20.75;6.53;;;8.30;91.90;;;;;;5074562;28;20017;-56
2023/12/26 09:33:46;;;;;;;33.30;7.40;;;8.30;92.10;;;;;;5074446;28;20446;-53
2023/12/26 09:36:15;;;;;;;21.25;5.30;;;8.20;92.10;;;;;;5074233;28;20330;-54
2023/12/26 09:38:42;;;;;;;23.45;4.95;;;8.30;92.10;;;;;;5074317;28;20641;-50
2023/12/26 09:41:12;;;;;;;22.25;4.40;;;8.30;92.10;;;;;;5074040;28;20063;-52
2023/12/26 09:43:40;;;;;;;22.35;4.03;;;8.30;92.00;;;;;;5081134;28;20243;-52
2023/12/26 09:46:07;;;;;;;29.17;5.75;;;8.30;91.80;;;;;;5073966;28;20127;-57
2023/12/26 09:48:39;;;;;;;23.30;5.55;;;8.20;91.70;;;;;;5075271;28;20519;-58
2023/12/26 09:51:12;;;;;;;21.13;5.43;;;8.20;91.90;;;;;;5073828;28;20082;-55
2023/12/26 09:53:44;;;;;;;30.27;5.88;;;8.20;92.20;;;;;;5073980;28;20040;-53
2023/12/26 09:56:11;;;;;;;24.25;5.75;;;8.20;92.40;;;;;;5084776;28;20203;-51
2023/12/26 09:58:44;;;;;;;24.42;4.75;;;8.10;92.40;;;;;;5073935;28;20082;-52
2023/12/26 10:01:13;;;;;;;17.80;4.57;;;8.10;92.40;;;;;;5074211;28;20059;-50
2023/12/26 10:03:41;;;;;;;20.98;4.80;;;8.20;92.30;;;;;;5056993;28;20028;-51
2023/12/26 10:06:09;;;;;;;26.00;5.33;;;8.20;92.10;;;;;;5087214;28;20509;-55
2023/12/26 10:08:35;;;;;;;26.17;5.82;;;8.20;92.20;;;;;;5073970;28;20021;-56
2023/12/26 10:11:02;;;;;;;18.50;4.57;;;8.10;92.20;;;;;;5079847;28;20032;-58
2023/12/26 10:13:53;;;;;;;23.80;4.95;;;8.10;92.50;;;;;;5077919;28;21546;-51
2023/12/26 10:16:19;;;;;;;23.30;6.03;;;8.10;92.80;;;;;;5073354;28;20051;-48
2023/12/26 10:18:47;;;;;;;21.85;6.07;;;8.10;92.90;;;;;;5073923;28;20703;-56
2023/12/26 10:21:22;;;;;;;20.98;3.78;;;8.10;92.80;;;;;;5075109;28;20448;-55
2023/12/26 10:23:50;;;;;;;20.38;4.97;;;8.10;92.60;;;;;;5075631;28;20039;-58
2023/12/26 10:26:16;;;;;;;25.40;4.30;;;8.10;92.60;;;;;;5083192;28;20476;-51
2023/12/26 10:28:42;;;;;;;19.88;4.57;;;8.10;92.80;;;;;;5064493;28;20034;-53
2023/12/26 10:31:26;;;;;;;28.75;5.75;;;8.10;92.90;;;;;;5083663;28;20030;-51
2023/12/26 10:34:15;;;;;;;16.52;4.65;;;8.10;92.70;;;;;;5074061;28;20037;-49
2023/12/26 10:36:44;;;;;;;22.85;4.82;;;8.00;92.30;;;;;;5069612;28;20119;-52
2023/12/26 10:39:11;;;;;;;24.53;5.10;;;8.10;92.40;;;;;;5074577;28;20016;-53
2023/12/26 10:41:43;;;;;;;20.60;6.05;;;8.20;92.30;;;;;;5073439;28;20039;-50
2023/12/26 10:44:11;;;;;;;23.20;4.53;;;8.30;92.30;;;;;;5074229;28;20109;-53
2023/12/26 10:46:41;;;;;;;21.60;4.72;;;8.30;92.10;;;;;;5073116;28;20016;-49
2023/12/26 10:49:22;;;;;;;27.08;5.07;;;8.30;91.70;;;;;;5072845;28;20040;-46
2023/12/26 10:51:51;;;;;;;25.35;5.50;;;8.30;91.60;;;;;;5074275;28;20036;-49
2023/12/26 10:54:38;;;;;;;19.52;4.70;;;8.30;91.30;;;;;;5080745;28;20266;-50
2023/12/26 10:57:08;;;;;;;20.67;4.28;;;8.40;91.20;;;;;;5082463;28;20120;-46
2023/12/26 13:52:01;;;;;;;13.65;1.85;;;7.40;95.20;;;;;;5093192;28;20364;-46
2023/12/26 13:55:05;;;;;;;8.95;1.85;;;7.40;95.20;;;;;;5081849;28;20119;-46
2023/12/26 13:58:09;;;;;;;11.90;1.90;;;7.20;94.60;;;;;;5087276;28;20028;-47
2023/12/26 14:01:13;;;;;;;7.10;1.98;;;7.10;94.50;;;;;;5083848;28;20028;-47
2023/12/26 14:04:21;;;;;;;10.38;3.38;;;7.00;94.20;;;;;;5085673;28;20060;-45
2023/12/26 14:07:26;;;;;;;9.90;1.48;;;7.00;93.60;;;;;;5086937;28;20020;-47
2023/12/26 14:10:30;;;;;;;14.02;3.03;;;7.00;93.30;;;;;;5091343;28;20747;-46
2023/12/26 14:13:34;;;;;;;5.75;1.67;;;7.00;93.20;;;;;;5080567;28;20024;-48
2023/12/26 14:16:39;;;;;;;9.93;2.22;;;6.90;93.20;;;;;;5077080;28;20044;-52
2023/12/26 14:19:42;;;;;;;5.82;1.90;;;6.90;93.20;;;;;;5079962;28;20032;-47
2023/12/26 14:22:50;;;;;;;9.00;2.22;;;6.90;93.10;;;;;;5082045;28;20034;-49
2023/12/26 14:25:54;;;;;;;8.60;1.73;;;7.00;93.30;;;;;;5081776;28;20020;-47
2023/12/26 14:28:58;;;;;;;11.15;2.03;;;7.10;93.40;;;;;;5076720;28;20056;-52
2023/12/26 14:32:06;;;;;;;5.13;1.50;;;7.00;93.20;;;;;;5073636;28;20359;-48
2023/12/26 14:35:10;;;;;;;15.25;2.47;;;6.90;93.20;;;;;;5072809;28;20063;-46
2023/12/26 14:38:15;;;;;;;8.63;1.77;;;6.90;93.30;;;;;;5074082;28;20097;-45
2023/12/26 14:41:18;;;;;;;6.65;1.63;;;6.80;93.20;;;;;;5072704;28;20024;-47
2023/12/26 14:44:22;;;;;;;8.10;1.80;;;6.80;93.00;;;;;;5076037;28;20099;-46
2023/12/26 14:47:27;;;;;;;11.75;1.98;;;6.80;92.90;;;;;;5056241;28;20441;-50
2023/12/26 14:50:32;;;;;;;10.35;1.73;;;6.80;92.90;;;;;;5072272;28;20032;-49
2023/12/26 14:53:40;;;;;;;7.45;1.58;;;6.70;92.70;;;;;;5079644;28;20035;-46
2023/12/26 14:56:44;;;;;;;4.53;0.90;;;6.70;92.40;;;;;;5071996;28;20388;-46
2023/12/26 14:59:49;;;;;;;4.50;1.35;;;6.60;92.00;;;;;;5073409;28;20035;-47
2023/12/26 15:02:19;;;;;;;4.53;1.17;;;6.60;91.80;;;;;;5071418;28;20116;-51
2023/12/26 15:04:45;;;;;;;;;;;6.60;91.60;;;;;;5071727;28;20152;-51
2023/12/26 15:07:12;;;;;;;10.63;2.20;;;6.60;91.70;;;;;;5071650;28;19962;-46
2023/12/26 15:09:39;;;;;;;16.45;2.25;;;6.60;92.00;;;;;;5074080;28;20020;-51
2023/12/26 15:12:06;;;;;;;11.77;1.60;;;6.70;92.40;;;;;;5085006;28;20110;-47
2023/12/26 15:14:31;;;;;;;9.25;1.70;;;6.70;92.40;;;;;;5087365;28;20056;-47
2023/12/26 15:16:57;;;;;;;5.57;1.92;;;6.70;91.90;;;;;;5086454;28;20397;-47
2023/12/26 15:19:24;;;;;;;9.25;1.83;;;6.60;91.20;;;;;;5087647;28;20441;-50
2023/12/26 15:21:51;;;;;;;10.18;2.50;;;6.60;91.00;;;;;;5081953;28;20028;-49
2023/12/26 15:24:20;;;;;;;13.30;2.50;;;6.70;91.00;;;;;;5066009;28;20063;-52
2023/12/26 15:26:48;;;;;;;10.52;1.80;;;6.60;91.10;;;;;;5087211;28;20028;-51
2023/12/26 15:29:19;;;;;;;8.93;2.67;;;6.60;91.30;;;;;;5083881;28;20032;-50
2023/12/26 15:31:49;;;;;;;8.13;2.30;;;6.60;91.00;;;;;;5088586;28;20020;-48
2023/12/26 15:34:15;;;;;;;14.45;3.83;;;6.50;90.70;;;;;;5087049;28;20030;-46
2023/12/26 15:36:43;;;;;;;11.00;3.60;;;6.50;90.50;;;;;;5084099;28;20032;-47
2023/12/26 15:39:10;;;;;;;7.55;1.38;;;6.40;89.60;;;;;;5086623;28;20031;-46
2023/12/26 15:41:36;;;;;;;9.68;1.40;;;6.40;87.50;;;;;;5087657;28;20024;-46
2023/12/26 15:44:02;;;;;;;8.02;1.48;;;6.30;86.90;;;;;;5089914;28;20072;-52
2023/12/26 15:46:29;;;;;;;7.05;1.27;;;6.20;86.50;;;;;;5088566;28;20027;-47
2023/12/26 15:48:56;;;;;;;6.60;1.90;;;6.10;86.00;;;;;;5087962;28;20064;-46
2023/12/26 15:51:24;;;;;;;9.43;1.48;;;6.10;85.80;;;;;;5087844;28;20039;-48
2023/12/26 15:53:55;;;;;;;11.00;1.80;;;6.00;86.00;;;;;;5089945;28;20056;-47
2023/12/26 15:56:28;;;;;;;13.82;4.32;;;6.00;85.90;;;;;;5085610;28;20517;-47
2023/12/26 15:58:55;;;;;;;8.10;2.30;;;6.10;86.40;;;;;;5083309;28;20029;-48
2023/12/26 16:01:22;;;;;;;8.55;1.60;;;6.00;86.70;;;;;;5086377;28;20026;-49